Time;durP1;ratioP1;P1;durP2;ratioP2;P2;SDS_P1;SDS_P2;PMS_P1;PMS_P2;Temp;Humidity;BMP_temperature;BMP_pressure;BME280_temperature;BME280_humidity;BME280_pressure;Samples;Min_cycle;Max_cycle;Signal;HPM_P1;HPM_P2
2023/05/05 00:03:37;;;;;;;3.63;2.50;;;12.60;99.90;;;11.04;76.80;100583.41;10408358;27;96949;-85
2023/05/05 00:08:40;;;;;;;4.17;2.20;;;12.50;99.90;;;10.91;77.08;100575.03;10442378;27;96565;-85
2023/05/05 00:13:43;;;;;;;2.97;2.17;;;12.40;99.90;;;10.79;77.36;100578.97;10442074;27;96468;-84
2023/05/05 00:18:46;;;;;;;6.17;2.63;;;12.20;99.90;;;10.67;77.59;100583.75;10436418;27;98663;-84
2023/05/05 00:23:50;;;;;;;4.70;3.20;;;12.10;99.90;;;10.57;77.78;100581.22;10396879;27;96663;-85
2023/05/05 00:28:53;;;;;;;3.73;2.00;;;12.00;99.90;;;10.43;78.17;100585.31;10425622;27;96636;-85
2023/05/05 00:33:56;;;;;;;4.33;2.47;;;11.90;99.90;;;10.37;78.42;100583.25;10397661;27;98824;-84
2023/05/05 00:38:59;;;;;;;3.60;2.33;;;11.80;99.90;;;10.26;78.48;100583.53;10422756;27;96695;-85
2023/05/05 00:44:02;;;;;;;5.43;3.13;;;11.70;99.90;;;10.19;78.69;100585.97;10424495;27;96760;-85
2023/05/05 00:49:05;;;;;;;5.37;3.30;;;11.60;99.90;;;10.13;79.50;100585.72;10430525;27;96631;-85
2023/05/05 00:54:08;;;;;;;8.50;3.73;;;11.50;99.90;;;10.02;79.87;100576.22;10406013;28;96657;-85
2023/05/05 00:59:11;;;;;;;5.50;3.90;;;11.50;99.90;;;9.90;80.57;100578.28;10403853;27;96433;-85
2023/05/05 01:04:14;;;;;;;4.57;2.87;;;11.40;99.90;;;9.83;81.16;100579.84;10414008;27;96819;-85
2023/05/05 01:09:41;;;;;;;5.57;2.80;;;11.20;99.90;;;9.75;81.42;100577.16;10421053;27;96670;-85
2023/05/05 01:15:00;;;;;;;7.43;3.17;;;11.20;99.90;;;9.70;81.70;100571.47;10417011;28;96749;-85
2023/05/05 01:20:53;;;;;;;11.63;3.80;;;11.20;99.90;;;9.60;82.02;100571.56;10420502;27;96622;-85
2023/05/05 01:26:31;;;;;;;25.90;7.23;;;11.10;99.90;;;9.51;82.43;100569.81;10382397;28;96638;-84
2023/05/05 01:31:53;;;;;;;14.10;4.57;;;11.00;99.90;;;9.45;82.81;100574.88;10453839;27;98216;-85
2023/05/05 01:37:25;;;;;;;13.23;4.93;;;10.90;99.90;;;9.39;82.80;100563.91;10419641;27;96655;-85
2023/05/05 01:42:29;;;;;;;;;;;10.80;99.90;;;9.35;83.08;100577.59;10419451;27;96591;-85
2023/05/05 01:47:34;;;;;;;13.17;5.03;;;10.80;99.90;;;9.25;83.13;100561.78;10413285;27;98316;-85
2023/05/05 01:52:40;;;;;;;5.13;3.17;;;10.70;99.90;;;9.27;83.41;100564.28;10467328;27;96737;-85
2023/05/05 01:57:45;;;;;;;4.43;2.87;;;10.70;99.90;;;9.25;83.38;100566.25;10425066;27;96666;-85
2023/05/05 02:02:49;;;;;;;5.77;3.00;;;10.70;99.90;;;9.22;83.03;100559.41;10409396;27;96815;-85
2023/05/05 02:07:58;;;;;;;4.50;2.83;;;10.70;99.90;;;9.20;83.04;100552.59;10424473;27;98343;-85
2023/05/05 02:13:03;;;;;;;7.03;3.23;;;10.70;99.90;;;9.22;82.78;100556.75;10457767;27;97818;-86
2023/05/05 02:18:07;;;;;;;4.20;2.43;;;10.70;99.90;;;9.20;82.87;100557.91;10434901;27;96839;-85
2023/05/05 02:23:10;;;;;;;4.33;2.70;;;10.60;99.90;;;9.12;82.98;100561.31;10437169;27;96791;-85
2023/05/05 02:28:49;;;;;;;4.27;2.73;;;10.60;99.90;;;9.02;82.81;100565.84;10442123;27;96595;-85
2023/05/05 02:34:00;;;;;;;8.27;4.50;;;10.50;99.90;;;8.93;83.26;100558.75;10375323;27;98147;-85
2023/05/05 02:39:13;;;;;;;14.67;6.03;;;10.40;99.90;;;8.81;83.55;100558.97;10432783;27;96619;-85
2023/05/05 02:44:18;;;;;;;9.33;4.77;;;10.40;99.90;;;8.73;83.80;100555.38;10440568;27;96749;-85
2023/05/05 02:49:21;;;;;;;17.90;6.27;;;10.20;99.90;;;8.68;84.23;100560.28;10403939;27;97389;-85
2023/05/05 02:54:26;;;;;;;16.87;6.47;;;10.20;99.90;;;8.61;84.27;100560.03;10439454;27;96656;-85
2023/05/05 02:59:57;;;;;;;13.90;5.80;;;10.10;99.90;;;8.59;84.73;100556.72;10411451;27;96781;-85
2023/05/05 03:05:09;;;;;;;9.73;4.43;;;10.10;99.90;;;8.54;84.79;100556.31;10399933;27;96646;-85
2023/05/05 03:10:19;;;;;;;6.93;2.73;;;10.10;99.90;;;8.57;84.90;100553.34;10391408;27;96512;-85
2023/05/05 03:15:40;;;;;;;5.30;3.00;;;10.10;99.90;;;8.53;84.62;100552.00;10389835;27;96683;-85
2023/05/05 03:20:43;;;;;;;4.20;2.60;;;10.00;99.90;;;8.54;84.61;100551.84;10430708;27;96632;-85
2023/05/05 03:25:48;;;;;;;3.90;2.40;;;10.00;99.90;;;8.56;84.49;100543.75;10435843;27;96958;-85
2023/05/05 03:30:52;;;;;;;4.17;2.77;;;10.10;99.90;;;8.58;84.15;100544.47;10413385;27;96763;-85
2023/05/05 03:35:55;;;;;;;6.00;3.60;;;10.10;99.90;;;8.58;83.92;100547.94;10413479;27;98877;-85
2023/05/05 03:41:02;;;;;;;4.77;2.20;;;10.10;99.90;;;8.57;84.05;100550.72;10421290;27;96591;-85
2023/05/05 03:46:05;;;;;;;5.13;2.40;;;10.10;99.90;;;8.60;83.15;100554.91;10437955;27;96521;-85
2023/05/05 03:51:08;;;;;;;8.53;3.40;;;10.10;99.90;;;8.65;83.10;100563.25;10423300;27;97281;-85
2023/05/05 03:56:11;;;;;;;7.23;3.40;;;10.10;99.90;;;8.72;83.01;100569.63;10359904;28;96525;-85
2023/05/05 04:01:15;;;;;;;12.93;5.10;;;10.10;99.90;;;8.80;83.27;100567.06;10383354;28;98283;-85
2023/05/05 04:06:18;;;;;;;8.83;3.70;;;10.20;99.90;;;8.93;83.46;100562.25;10368886;28;96666;-85
2023/05/05 04:11:21;;;;;;;9.43;3.17;;;10.30;99.90;;;9.06;83.19;100562.75;10355745;28;97463;-84
2023/05/05 04:16:24;;;;;;;11.80;4.50;;;10.50;99.90;;;9.24;82.93;100564.59;10376295;27;96659;-85
2023/05/05 04:21:28;;;;;;;5.63;2.70;;;10.60;99.90;;;9.33;82.42;100564.50;10380719;27;98588;-85
2023/05/05 04:26:31;;;;;;;6.37;2.77;;;10.80;99.90;;;9.43;82.34;100568.91;10372958;28;96601;-85
2023/05/05 04:31:34;;;;;;;4.50;2.57;;;10.90;99.90;;;9.49;82.20;100579.75;10373704;27;98302;-85
2023/05/05 04:36:37;;;;;;;4.70;2.93;;;10.90;99.90;;;9.56;82.66;100577.31;10367065;28;96787;-85
2023/05/05 04:41:40;;;;;;;5.50;2.07;;;11.00;99.90;;;9.63;82.36;100581.84;10386572;28;96491;-84
2023/05/05 04:46:43;;;;;;;6.00;2.67;;;11.10;99.90;;;9.74;82.64;100588.75;10376867;27;96698;-85
2023/05/05 04:51:46;;;;;;;4.10;2.00;;;11.20;99.90;;;9.84;81.92;100581.56;10385095;28;97390;-85
2023/05/05 04:56:49;;;;;;;4.80;2.20;;;11.30;99.90;;;9.94;81.47;100594.72;10396776;27;96874;-85
2023/05/05 05:01:52;;;;;;;4.00;2.13;;;11.30;99.90;;;10.02;80.79;100599.28;10405208;27;97771;-85
2023/05/05 05:06:55;;;;;;;4.63;2.43;;;11.40;99.90;;;10.16;80.74;100601.38;10423786;27;98997;-85
2023/05/05 05:12:01;;;;;;;5.73;2.80;;;11.50;99.90;;;10.32;81.10;100596.19;10383815;27;96448;-85
2023/05/05 05:17:05;;;;;;;7.37;2.20;;;11.70;99.90;;;10.55;80.78;100595.66;10451584;27;96698;-85
2023/05/05 05:22:08;;;;;;;2.43;1.77;;;11.90;99.90;;;10.78;80.65;100598.59;10417873;27;96682;-85
2023/05/05 05:27:11;;;;;;;4.50;2.47;;;12.20;99.90;;;10.98;79.42;100594.69;10426128;27;96459;-87
2023/05/05 05:32:14;;;;;;;2.80;1.93;;;12.30;99.90;;;11.23;79.09;100598.25;10426643;27;96602;-86
2023/05/05 05:37:17;;;;;;;4.67;2.47;;;12.60;99.90;;;11.51;78.43;100601.47;10412451;27;98377;-84
2023/05/05 05:42:21;;;;;;;3.40;2.07;;;12.80;99.90;;;11.77;75.91;100606.66;10371480;27;96785;-85
2023/05/05 05:47:24;;;;;;;7.70;2.57;;;13.10;99.90;;;12.07;74.24;100615.03;10453554;27;97225;-85
2023/05/05 05:52:27;;;;;;;2.80;1.97;;;13.40;99.90;;;12.39;72.51;100606.16;10423871;27;97906;-85
2023/05/05 05:57:31;;;;;;;3.10;1.70;;;13.70;99.90;;;12.69;69.90;100609.91;10450468;27;96548;-85
2023/05/05 06:02:34;;;;;;;4.40;2.10;;;14.00;99.90;;;12.91;67.72;100603.00;10433313;27;96577;-85
2023/05/05 06:07:37;;;;;;;2.70;1.70;;;14.30;99.90;;;13.13;65.71;100605.75;10428382;27;96724;-85
2023/05/05 06:12:40;;;;;;;3.10;1.70;;;14.50;99.90;;;13.34;64.64;100613.16;10399987;27;96670;-85
2023/05/05 06:17:43;;;;;;;4.95;2.08;;;14.70;99.90;;;13.54;63.21;100607.34;10424461;27;96499;-85
2023/05/05 06:22:46;;;;;;;7.38;2.38;;;14.90;98.40;;;13.75;63.26;100609.38;10419213;27;96506;-84
2023/05/05 06:27:49;;;;;;;4.35;2.38;;;15.10;98.20;;;13.92;60.29;100595.72;10398684;27;96550;-85
2023/05/05 06:32:53;;;;;;;2.75;1.48;;;15.30;96.70;;;14.11;58.75;100598.91;10433526;27;97535;-85
2023/05/05 06:37:56;;;;;;;2.85;1.95;;;15.50;95.40;;;14.16;56.83;100597.34;10425356;27;96485;-85
2023/05/05 06:42:59;;;;;;;3.83;2.20;;;15.60;93.70;;;14.23;56.67;100593.94;10440541;27;96586;-84
2023/05/05 06:48:02;;;;;;;5.85;2.28;;;15.60;93.10;;;14.34;57.78;100590.84;10417972;27;96790;-84
2023/05/05 06:53:05;;;;;;;5.60;2.30;;;15.70;93.20;;;14.48;55.91;100591.88;10418841;27;96620;-83
2023/05/05 06:58:08;;;;;;;3.58;1.75;;;15.90;92.50;;;14.72;56.51;100588.94;10383282;27;97171;-84
2023/05/05 07:03:12;;;;;;;4.28;2.10;;;16.10;92.20;;;14.97;54.26;100598.31;10433111;27;96611;-84
2023/05/05 07:08:15;;;;;;;2.65;1.85;;;16.30;91.40;;;15.19;52.93;100593.84;10459980;27;96684;-85
2023/05/05 07:13:18;;;;;;;4.43;2.40;;;16.60;90.10;;;15.26;52.78;100585.91;10422762;27;96666;-84
2023/05/05 07:18:21;;;;;;;3.67;2.15;;;16.70;88.00;;;15.41;53.04;100586.69;10395239;27;97594;-85
2023/05/05 07:23:24;;;;;;;4.35;2.30;;;16.80;87.30;;;15.68;52.25;100587.81;10436647;27;98295;-85
2023/05/05 07:28:27;;;;;;;3.90;2.00;;;17.00;86.50;;;15.86;51.80;100581.16;10404814;27;97357;-84
2023/05/05 07:33:30;;;;;;;3.38;2.13;;;17.30;85.20;;;16.01;51.87;100580.06;10420531;27;96802;-85
2023/05/05 07:38:33;;;;;;;4.50;2.38;;;17.40;84.90;;;16.11;51.44;100582.41;10435718;27;98765;-84
2023/05/05 07:43:37;;;;;;;3.05;1.98;;;17.50;84.10;;;16.06;52.19;100576.78;10416474;27;96603;-85
2023/05/05 07:48:41;;;;;;;6.18;2.90;;;17.50;83.20;;;16.25;52.08;100576.13;10426033;27;97007;-85
2023/05/05 07:53:44;;;;;;;3.95;2.20;;;17.60;83.50;;;16.57;52.68;100581.88;10426136;27;97542;-84
2023/05/05 07:58:48;;;;;;;4.05;2.20;;;17.80;84.50;;;16.78;51.98;100578.31;10436381;27;98994;-85
2023/05/05 08:03:51;;;;;;;4.93;2.50;;;18.10;83.40;;;16.97;51.06;100580.28;10387549;27;96928;-85
2023/05/05 08:08:54;;;;;;;4.25;2.40;;;18.30;82.60;;;17.11;50.48;100570.41;10373268;28;97801;-85
2023/05/05 08:13:57;;;;;;;3.60;2.10;;;18.50;81.40;;;17.43;50.95;100568.00;10407273;27;96928;-85
2023/05/05 08:19:01;;;;;;;3.83;2.35;;;18.80;82.00;;;17.72;50.44;100580.28;10388536;28;96554;-85
2023/05/05 08:24:04;;;;;;;4.85;2.25;;;19.00;81.70;;;17.86;48.91;100573.88;10385553;28;96667;-85
2023/05/05 08:29:07;;;;;;;3.13;2.20;;;19.20;80.30;;;17.91;48.65;100564.16;10397056;28;97182;-85
2023/05/05 08:34:10;;;;;;;7.40;2.28;;;19.30;78.90;;;17.96;48.78;100560.84;10349212;28;96559;-85
2023/05/05 08:39:13;;;;;;;3.63;2.50;;;19.40;78.30;;;18.18;48.19;100556.09;10357373;28;96595;-85
2023/05/05 08:44:16;;;;;;;5.30;2.70;;;19.70;78.10;;;18.60;48.33;100553.94;10394238;28;96362;-86
2023/05/05 08:49:20;;;;;;;4.00;2.63;;;20.20;77.50;;;18.82;46.43;100549.91;10379674;27;98326;-85
2023/05/05 08:54:29;;;;;;;4.57;2.47;;;20.40;75.30;;;19.16;47.92;100556.00;10421663;27;96672;-83
2023/05/05 08:59:33;;;;;;;4.80;2.65;;;20.50;76.60;;;19.26;47.13;100564.44;10404370;27;96837;-84
2023/05/05 09:04:36;;;;;;;4.55;2.47;;;20.70;75.40;;;19.31;46.74;100544.91;10451205;27;96629;-84
2023/05/05 09:09:39;;;;;;;3.97;2.53;;;20.70;75.00;;;19.48;46.96;100536.09;10404670;27;97687;-85
2023/05/05 09:14:42;;;;;;;5.82;2.88;;;20.90;75.20;;;19.61;46.53;100537.94;10400694;27;96537;-84
2023/05/05 09:20:08;;;;;;;5.18;3.00;;;21.00;74.20;;;19.46;46.11;100524.72;10402126;27;96544;-83
2023/05/05 09:25:15;;;;;;;4.13;3.38;;;20.90;73.30;;;19.47;45.70;100515.56;10416986;27;98479;-84
2023/05/05 09:30:24;;;;;;;6.75;3.08;;;20.90;72.60;;;19.72;45.49;100512.09;10406859;27;96577;-84
2023/05/05 09:35:28;;;;;;;6.60;2.67;;;21.00;73.10;;;19.79;45.58;100510.16;10428240;27;97171;-84
2023/05/05 09:40:48;;;;;;;4.85;2.50;;;21.10;72.30;;;19.92;45.29;100504.69;10382599;27;97008;-84
2023/05/05 09:46:03;;;;;;;4.73;2.90;;;21.20;72.20;;;19.96;46.01;100500.47;10445240;27;96680;-84
2023/05/05 09:51:07;;;;;;;5.28;3.30;;;21.30;71.70;;;20.16;44.15;100504.88;10406957;27;96496;-84
2023/05/05 09:56:11;;;;;;;18.30;4.90;;;21.50;70.30;;;20.14;43.65;100490.75;10404937;27;96640;-83
2023/05/05 10:01:22;;;;;;;5.80;3.00;;;21.60;68.50;;;20.26;43.22;100492.50;10381544;27;1307602;-84
2023/05/05 10:06:47;;;;;;;4.88;3.28;;;21.70;68.20;;;20.29;43.04;100491.22;10400853;27;96608;-84
2023/05/05 10:11:50;;;;;;;4.88;2.75;;;21.80;67.80;;;20.40;43.59;100498.59;10399699;27;96602;-84
2023/05/05 10:16:54;;;;;;;10.75;3.65;;;21.80;67.70;;;20.63;42.56;100495.22;10437693;27;96638;-84
2023/05/05 10:22:02;;;;;;;112.45;12.35;;;22.00;67.00;;;20.81;43.40;100491.66;10439816;27;96740;-84
2023/05/05 10:27:21;;;;;;;5.90;3.20;;;22.20;67.20;;;21.03;41.52;100492.00;10407760;27;98656;-84
2023/05/05 10:32:39;;;;;;;6.70;3.20;;;22.40;66.40;;;20.91;41.32;100475.75;10420969;27;96626;-83
2023/05/05 10:37:46;;;;;;;4.35;2.53;;;22.40;64.80;;;21.18;42.32;100464.56;10415593;27;96412;-84
2023/05/05 10:42:50;;;;;;;3.65;2.60;;;22.50;65.60;;;21.31;41.57;100459.81;10366335;27;96702;-85
2023/05/05 10:47:57;;;;;;;5.15;3.65;;;22.60;64.70;;;21.58;41.63;100446.66;10435356;27;96579;-85
2023/05/05 10:53:16;;;;;;;4.97;2.45;;;22.90;64.60;;;21.68;39.81;100440.69;10404379;27;98480;-85
2023/05/05 10:58:38;;;;;;;3.28;2.08;;;23.10;63.30;;;21.86;39.21;100434.31;10365544;28;96699;-85
2023/05/05 11:04:21;;;;;;;10.10;2.70;;;23.20;62.10;;;21.98;36.30;100429.72;10446663;27;96727;-85
2023/05/05 11:09:28;;;;;;;4.53;2.10;;;23.40;59.30;;;21.90;36.43;100430.09;10384481;28;96538;-84
2023/05/05 11:14:31;;;;;;;2.85;1.83;;;23.50;58.60;;;22.02;36.63;100424.69;10401316;27;96972;-85
2023/05/05 11:19:47;;;;;;;3.97;2.17;;;23.50;58.50;;;21.79;37.25;100417.41;10413461;27;96567;-84
2023/05/05 11:24:50;;;;;;;3.42;1.90;;;23.50;57.70;;;21.98;37.47;100413.50;10438186;27;96581;-84
2023/05/05 11:30:07;;;;;;;3.55;1.90;;;23.50;58.10;;;22.14;36.21;100407.38;10455293;27;97412;-84
2023/05/05 11:35:11;;;;;;;2.95;2.10;;;23.60;57.00;;;22.12;35.88;100398.66;10424607;27;96587;-84
2023/05/05 11:40:29;;;;;;;4.35;2.20;;;23.70;56.30;;;21.97;36.27;100403.72;10422649;27;96590;-84
2023/05/05 11:45:33;;;;;;;4.55;1.60;;;23.60;56.00;;;21.99;36.15;100392.66;10424540;27;97149;-83
2023/05/05 11:50:37;;;;;;;3.25;1.70;;;23.60;55.90;;;22.26;36.44;100382.16;10405539;27;96662;-84
2023/05/05 11:55:40;;;;;;;4.10;1.88;;;23.80;56.40;;;22.34;35.46;100384.50;10431333;27;98523;-85
2023/05/05 12:00:43;;;;;;;2.85;1.92;;;23.90;55.50;;;22.57;35.64;100378.16;10422741;27;97133;-85
2023/05/05 12:05:47;;;;;;;3.30;1.80;;;24.10;55.10;;;22.43;34.83;100364.91;10408283;27;98828;-85
2023/05/05 12:10:50;;;;;;;3.42;1.77;;;24.20;54.00;;;22.56;34.07;100366.50;10387627;28;96579;-84
2023/05/05 12:15:53;;;;;;;3.10;1.40;;;24.50;53.40;;;23.13;33.68;100360.19;10440581;27;96892;-84
2023/05/05 12:20:56;;;;;;;2.30;1.60;;;25.10;53.50;;;23.40;33.63;100357.66;10397941;27;98271;-85
2023/05/05 12:26:00;;;;;;;4.13;2.00;;;25.70;51.60;;;23.93;31.98;100351.63;10430457;27;96568;-84
2023/05/05 12:31:03;;;;;;;1.42;1.10;;;26.30;51.60;;;24.33;29.84;100345.03;10412248;27;96822;-84
2023/05/05 12:36:09;;;;;;;1.50;1.00;;;26.90;50.10;;;24.80;29.93;100347.16;10437122;27;96460;-84
2023/05/05 12:41:18;;;;;;;2.15;1.33;;;27.30;49.80;;;24.94;29.26;100336.66;10416021;27;98012;-85
2023/05/05 12:46:22;;;;;;;1.50;1.15;;;27.60;47.00;;;25.12;28.40;100339.00;10440624;27;96603;-84
2023/05/05 12:51:25;;;;;;;2.80;1.20;;;27.60;46.80;;;25.45;28.30;100340.63;10391489;28;96589;-85
2023/05/05 12:56:35;;;;;;;2.22;1.40;;;27.80;46.10;;;25.59;27.94;100335.50;10385307;28;96580;-84
2023/05/05 13:01:52;;;;;;;3.35;1.30;;;27.80;46.10;;;25.49;28.08;100319.13;10419507;27;97026;-84
2023/05/05 13:07:14;;;;;;;1.80;1.17;;;27.70;45.90;;;25.78;27.59;100316.84;10416019;28;96794;-84
2023/05/05 13:12:17;;;;;;;1.30;1.02;;;27.60;46.50;;;25.95;27.89;100301.13;10450250;27;96505;-83
2023/05/05 13:17:21;;;;;;;3.38;1.17;;;27.60;46.50;;;26.02;28.56;100290.00;10434707;27;96760;-84
2023/05/05 13:22:24;;;;;;;1.73;1.27;;;27.50;46.40;;;26.09;26.88;100287.84;10406110;27;96801;-84
2023/05/05 13:27:27;;;;;;;2.47;1.40;;;27.40;45.70;;;26.00;27.34;100278.56;10430862;27;98896;-85
2023/05/05 13:32:30;;;;;;;2.40;1.40;;;27.20;45.60;;;25.85;28.00;100265.72;10444591;27;97203;-85
2023/05/05 13:37:33;;;;;;;2.05;1.20;;;27.00;45.40;;;25.67;27.46;100271.59;10438357;27;96872;-86
2023/05/05 13:42:36;;;;;;;3.10;1.30;;;27.00;45.10;;;25.33;27.19;100269.28;10433328;27;96538;-85
2023/05/05 13:47:40;;;;;;;2.85;1.45;;;26.70;44.90;;;24.88;26.91;100264.31;10430481;27;98520;-85
2023/05/05 13:52:44;;;;;;;2.25;1.05;;;26.60;43.90;;;24.70;27.96;100260.09;10440241;27;98048;-84
2023/05/05 13:57:47;;;;;;;2.67;1.23;;;26.70;44.10;;;24.79;28.45;100258.56;10440424;27;97374;-83
2023/05/05 14:02:50;;;;;;;1.70;1.10;;;27.00;44.40;;;25.17;28.93;100260.19;10435840;27;96762;-83
2023/05/05 14:07:54;;;;;;;1.52;1.02;;;27.70;44.70;;;25.19;26.74;100251.75;10435160;27;96656;-84
2023/05/05 14:12:57;;;;;;;2.67;1.10;;;28.10;43.00;;;25.31;25.88;100260.56;10410907;27;97358;-84
2023/05/05 14:18:00;;;;;;;2.28;1.13;;;28.10;42.80;;;25.87;27.20;100248.03;10414435;27;96612;-86
2023/05/05 14:23:03;;;;;;;2.97;1.20;;;28.70;43.20;;;25.84;25.28;100245.00;10383376;27;97284;-85
2023/05/05 14:28:06;;;;;;;3.35;1.40;;;28.80;41.70;;;25.78;26.18;100237.91;10454540;27;96981;-85
2023/05/05 14:33:09;;;;;;;2.25;1.40;;;28.60;41.50;;;25.95;26.12;100243.97;10410931;27;96659;-85
2023/05/05 14:38:12;;;;;;;2.83;1.33;;;28.50;41.70;;;25.56;26.08;100240.81;10426741;27;98140;-85
2023/05/05 14:43:15;;;;;;;3.13;1.25;;;28.20;41.80;;;25.38;26.51;100228.50;10431582;27;96649;-85
2023/05/05 14:48:20;;;;;;;3.40;1.70;;;28.00;41.80;;;25.62;27.20;100231.59;10406423;27;96566;-85
2023/05/05 14:53:24;;;;;;;2.88;1.50;;;28.20;42.80;;;26.08;26.05;100237.19;10418690;27;96786;-85
2023/05/05 14:58:27;;;;;;;4.15;1.63;;;28.70;42.00;;;26.46;26.13;100224.19;10406634;27;96586;-84
2023/05/05 15:03:30;;;;;;;5.15;1.85;;;29.10;42.10;;;26.82;25.95;100225.81;10444067;27;96643;-85
2023/05/05 15:08:33;;;;;;;2.30;1.60;;;29.30;42.00;;;26.87;25.99;100224.97;10401443;27;96656;-85
2023/05/05 15:13:40;;;;;;;2.78;1.67;;;29.30;41.80;;;26.90;26.02;100217.06;10441910;27;98554;-84
2023/05/05 15:18:43;;;;;;;2.20;1.73;;;29.40;41.80;;;26.77;25.66;100219.53;10407878;27;97574;-85
2023/05/05 15:23:46;;;;;;;3.38;1.42;;;29.30;41.60;;;26.49;26.19;100218.19;10425172;27;96592;-84
2023/05/05 15:28:51;;;;;;;3.53;1.20;;;29.10;41.60;;;26.53;26.65;100222.00;10452705;27;96540;-85
2023/05/05 15:33:54;;;;;;;3.22;1.63;;;28.90;41.90;;;26.42;26.33;100224.72;10424705;27;96470;-85
2023/05/05 15:38:57;;;;;;;1.45;1.10;;;28.90;41.60;;;26.62;26.71;100217.63;10430797;27;97733;-85
2023/05/05 15:44:02;;;;;;;5.68;1.70;;;28.90;42.00;;;26.50;25.92;100212.47;10434510;27;96569;-87
2023/05/05 15:49:05;;;;;;;2.13;1.30;;;28.90;41.60;;;26.46;26.21;100210.56;10414324;27;96424;-85
2023/05/05 15:54:08;;;;;;;3.85;1.55;;;28.80;41.70;;;26.39;26.49;100206.19;10414922;27;97056;-85
2023/05/05 15:59:11;;;;;;;2.83;1.92;;;28.70;41.70;;;26.30;26.90;100212.44;10438705;27;96553;-85
2023/05/05 16:04:14;;;;;;;6.15;1.73;;;28.50;42.00;;;25.87;26.16;100200.94;10425672;27;96746;-86
2023/05/05 16:09:17;;;;;;;2.53;1.52;;;28.30;41.70;;;25.62;27.28;100204.38;10456412;27;96905;-87
2023/05/05 16:14:21;;;;;;;8.25;2.03;;;28.00;42.10;;;25.50;27.65;100203.78;10434651;27;96775;-87
2023/05/05 16:19:26;;;;;;;3.30;1.60;;;27.70;42.40;;;25.42;27.63;100201.56;10456373;27;96672;-85
2023/05/05 16:24:31;;;;;;;4.07;1.77;;;27.50;42.60;;;25.12;27.92;100192.19;10413371;27;96695;-85
2023/05/05 16:29:34;;;;;;;2.53;1.52;;;27.20;42.80;;;24.85;28.31;100197.72;10419360;27;98176;-84
2023/05/05 16:34:37;;;;;;;4.00;1.60;;;26.90;43.20;;;24.69;28.31;100204.94;10422525;27;96559;-85
2023/05/05 16:39:41;;;;;;;3.40;1.30;;;26.70;43.40;;;24.52;28.78;100206.97;10427745;27;96689;-83
2023/05/05 16:44:44;;;;;;;3.63;1.40;;;26.40;43.60;;;24.23;29.19;100206.41;10418528;27;96872;-83
2023/05/05 16:49:47;;;;;;;5.88;1.60;;;26.10;43.60;;;23.91;29.38;100200.97;10391598;27;96835;-85
2023/05/05 16:54:54;;;;;;;2.75;1.40;;;25.80;43.90;;;23.61;30.46;100194.09;10413130;27;97394;-87
2023/05/05 16:59:57;;;;;;;4.22;1.95;;;25.40;44.40;;;23.16;30.70;100206.03;10416464;27;98564;-86
2023/05/05 17:05:01;;;;;;;4.50;1.65;;;24.80;44.70;;;22.81;31.04;100202.78;10423600;27;97559;-89
2023/05/05 17:10:05;;;;;;;2.97;1.60;;;24.50;45.60;;;22.48;31.61;100193.59;10385769;27;97600;-88
2023/05/05 17:15:09;;;;;;;4.47;1.75;;;24.10;46.00;;;22.27;33.35;100205.16;10446702;27;98701;-85
2023/05/05 17:20:12;;;;;;;2.33;1.50;;;23.80;47.40;;;21.97;33.93;100192.69;10408975;27;98309;-86
2023/05/05 17:25:16;;;;;;;6.95;2.03;;;23.50;47.60;;;21.76;36.00;100209.59;10430052;27;96621;-86
2023/05/05 17:30:19;;;;;;;3.40;2.00;;;23.20;48.90;;;21.23;38.22;100208.78;10403712;27;98415;-86
2023/05/05 17:35:23;;;;;;;4.20;2.40;;;22.70;50.50;;;20.83;39.52;100212.22;10392392;27;97463;-87
2023/05/05 17:40:25;;;;;;;4.88;2.20;;;22.30;52.10;;;20.34;41.34;100218.81;10396161;27;96531;-86
2023/05/05 17:45:29;;;;;;;3.47;2.03;;;21.80;53.40;;;19.89;41.63;100221.94;10386223;27;96669;-87
2023/05/05 17:50:32;;;;;;;3.45;2.40;;;21.40;54.40;;;19.42;43.22;100216.28;10367618;27;96609;-85
2023/05/05 17:55:35;;;;;;;5.30;2.88;;;20.90;55.30;;;19.08;44.00;100220.41;10438053;27;96657;-85
2023/05/05 18:00:39;;;;;;;4.70;2.42;;;20.50;56.30;;;18.79;45.23;100224.63;10371942;27;96758;-84
2023/05/05 18:05:42;;;;;;;6.57;3.55;;;20.10;57.30;;;18.49;45.78;100228.97;10406118;27;97089;-84
2023/05/05 18:10:45;;;;;;;7.05;3.42;;;19.80;58.10;;;18.20;47.17;100228.56;10416213;27;98219;-84
2023/05/05 18:15:48;;;;;;;5.45;3.35;;;19.50;58.90;;;17.90;48.11;100236.38;10435855;27;96573;-84
2023/05/05 18:20:51;;;;;;;8.55;4.70;;;19.10;59.80;;;17.61;49.22;100235.84;10419243;27;97101;-84
2023/05/05 18:25:54;;;;;;;9.20;4.82;;;18.80;61.20;;;17.37;50.00;100250.00;10440242;27;96755;-84
2023/05/05 18:30:57;;;;;;;6.00;3.30;;;18.50;62.20;;;17.18;51.21;100251.69;10414759;27;96608;-83
2023/05/05 18:36:02;;;;;;;5.95;3.70;;;18.40;62.90;;;17.04;52.02;100258.94;10416461;27;96779;-84
2023/05/05 18:41:05;;;;;;;8.98;4.38;;;18.30;63.60;;;16.96;53.05;100269.06;10423632;27;96651;-84
2023/05/05 18:46:08;;;;;;;9.82;5.63;;;18.10;64.30;;;16.83;53.51;100267.22;10406065;27;97319;-84
2023/05/05 18:51:11;;;;;;;11.13;6.25;;;18.00;65.10;;;16.70;54.08;100265.34;10431978;27;98121;-84
2023/05/05 18:56:14;;;;;;;7.72;4.80;;;17.90;66.00;;;16.53;55.22;100280.16;10431557;27;97080;-84
2023/05/05 19:01:17;;;;;;;5.40;3.53;;;17.70;66.70;;;16.34;55.48;100284.47;10410329;27;96629;-84
2023/05/05 19:06:20;;;;;;;8.18;4.93;;;17.60;67.20;;;16.20;55.51;100280.94;10422738;27;96832;-84
2023/05/05 19:11:23;;;;;;;3.78;2.92;;;17.40;67.60;;;16.09;56.08;100280.72;10419104;27;96550;-84
2023/05/05 19:16:27;;;;;;;5.53;3.00;;;17.30;67.90;;;15.95;56.25;100286.03;10430377;27;98393;-84
2023/05/05 19:21:32;;;;;;;4.43;3.00;;;17.20;68.40;;;15.81;56.30;100284.31;10408505;27;98897;-84
2023/05/05 19:26:35;;;;;;;6.82;4.03;;;17.00;68.80;;;15.70;57.14;100285.69;10445418;27;96726;-84
2023/05/05 19:31:38;;;;;;;4.95;3.42;;;16.90;69.30;;;15.56;57.59;100281.28;10446644;27;98402;-84
2023/05/05 19:36:41;;;;;;;5.32;3.55;;;16.80;69.70;;;15.39;57.40;100290.66;10432568;27;98562;-85
2023/05/05 19:41:44;;;;;;;6.50;3.75;;;16.60;70.50;;;15.26;57.92;100288.72;10422947;27;98366;-84
2023/05/05 19:46:48;;;;;;;5.70;3.17;;;16.50;71.00;;;15.18;58.32;100289.72;10417900;27;97287;-84
2023/05/05 19:51:51;;;;;;;7.20;3.42;;;16.40;71.10;;;15.07;58.60;100289.41;10405645;27;96622;-84
2023/05/05 19:56:56;;;;;;;4.20;3.15;;;16.30;71.50;;;14.97;59.02;100284.41;10424842;27;96782;-84
2023/05/05 20:01:59;;;;;;;5.32;3.85;;;16.20;71.90;;;14.88;59.54;100288.25;10404607;27;96490;-84
2023/05/05 20:07:03;;;;;;;7.50;4.57;;;16.10;72.30;;;14.77;59.64;100286.94;10425807;27;96569;-84
2023/05/05 20:12:06;;;;;;;7.72;3.47;;;16.00;72.90;;;14.69;60.15;100292.38;10418625;27;97092;-84
2023/05/05 20:17:11;;;;;;;7.07;4.70;;;15.90;73.40;;;14.60;60.35;100291.72;10472039;27;96635;-84
2023/05/05 20:22:14;;;;;;;5.05;3.20;;;15.90;73.90;;;14.50;61.41;100291.19;10445308;27;96722;-84
2023/05/05 20:27:17;;;;;;;6.95;3.47;;;15.80;74.20;;;14.44;62.06;100281.22;10435668;27;97283;-85
2023/05/05 20:32:20;;;;;;;4.97;3.30;;;15.80;74.80;;;14.40;62.18;100282.66;10412977;27;96838;-84
2023/05/05 20:37:25;;;;;;;4.33;3.17;;;15.70;75.30;;;14.31;62.79;100283.78;10403609;27;98085;-85
2023/05/05 20:42:28;;;;;;;5.07;3.33;;;15.60;75.70;;;14.11;63.58;100281.72;10422820;27;98004;-85
2023/05/05 20:47:34;;;;;;;4.23;3.13;;;15.50;76.50;;;13.87;64.38;100277.53;10427671;27;96997;-84
2023/05/05 20:52:37;;;;;;;5.83;3.87;;;15.20;77.40;;;13.62;65.25;100279.69;10432996;27;96809;-85
2023/05/05 20:57:40;;;;;;;4.10;3.17;;;14.90;78.50;;;13.42;66.16;100283.94;10426099;27;97685;-84
2023/05/05 21:02:44;;;;;;;4.77;3.50;;;14.70;80.30;;;13.21;67.91;100282.00;10430371;27;96753;-84